Hlavní strana
METAR-TAF:

METAR-TAF

Letiště :

Monastir, Tunisko

zeměpisná šířka: 35-46N, zeměpisná délka: 010-45E, výška: 2 m

Aktuální stav počasí

Zpráva byla vytvořena před 32 minutami, v 16:00 UTC
Východojihovýchodní vítr 13 kt
Teplota 16°C
Vlhkost vzduchu 63%
Tlak 1024 hPa
Viditelnost: 8000 m

METAR: DTMB 281600Z 11013KT 8000 NSC 16/09 Q1024

Čas: 17:32 (16:32 UTC)

Předpověď počasí

Zpráva byla vytvořena před 5 hodinami a 32 minutami, v 11:00 UTC
Předpověď platná od 28 v 12 UTC do 01 v 12 UTC
Východoseverovýchodní vítr 8 kt
Viditelnost: 8000 m
Změna
od 28 v 14 UTC do 28 v 16 UTC
Jihovýchodní vítr 12 kt
Změna
od 28 v 20 UTC do 28 v 22 UTC
Jižní vítr 3 kt
Pravděpodobnost 40% :
Dočasný
od 01 v 03 UTC do 01 v 07 UTC
Viditelnost: 2000 m
kouřmo

TAF: DTMB 281100Z 2812/0112 07008KT 8000 NSC BECMG 2814/2816 13012KT BECMG 2820/2822 19003KT PROB40 TEMPO 0103/0107 2000 BR

Stav a předpovědi počasí z více než 4 000 letišť (zprávy METAR a TAF).

Červené a žluté tečky na mapě představují dostupné meteorologické stanice.

Když kurzor umístíte na tečku, zobrazí se název stanice.

Pak kliknutím zobrazíte stav a předpověď počasí.

Chcete-li změnit mapu, kliknutím na zelené tlačítko se znaménkem +mapu přiblížíte, kliknutím na zelené tlačítko se znaménkem – mapu oddálíte a kliknutím na zelené šipky přejdete na sousední mapy.


METAR-TAF: